createdAt,value
2023-10-20T00:00:23.065Z,10.43
2023-10-20T00:02:51.541Z,10.45
2023-10-20T00:05:21.392Z,8.73
2023-10-20T00:07:49.786Z,11.15
2023-10-20T00:10:19.059Z,10.52
2023-10-20T00:12:47.510Z,11.60
2023-10-20T00:15:17.569Z,10.70
2023-10-20T00:17:47.287Z,11.07
2023-10-20T00:20:15.700Z,10.27
2023-10-20T00:22:45.577Z,11.10
2023-10-20T00:25:13.883Z,10.32
2023-10-20T00:27:43.352Z,9.52
2023-10-20T00:30:13.031Z,11.85
2023-10-20T00:32:42.633Z,10.38
2023-10-20T00:35:14.658Z,10.30
2023-10-20T00:37:45.203Z,10.43
2023-10-20T00:40:14.443Z,11.18
2023-10-20T00:42:42.845Z,9.27
2023-10-20T00:45:12.239Z,11.15
2023-10-20T00:47:42.272Z,12.13
2023-10-20T00:50:13.343Z,11.30
2023-10-20T00:52:46.435Z,10.02
2023-10-20T00:55:16.109Z,11.57
2023-10-20T00:57:46.436Z,11.23
2023-10-20T01:00:16.595Z,10.80
2023-10-20T01:02:45.065Z,12.25
2023-10-20T01:05:16.316Z,12.88
2023-10-20T01:07:46.301Z,11.35
2023-10-20T01:10:15.375Z,12.05
2023-10-20T01:12:44.286Z,10.93
2023-10-20T01:15:16.378Z,11.35
2023-10-20T01:17:45.335Z,12.27
2023-10-20T01:20:14.199Z,12.80
2023-10-20T01:22:43.188Z,11.23
2023-10-20T01:25:13.363Z,11.68
2023-10-20T01:27:41.845Z,10.55
2023-10-20T01:30:12.358Z,10.70
2023-10-20T01:32:42.202Z,10.85
2023-10-20T01:35:11.547Z,11.02
2023-10-20T01:37:39.954Z,9.88
2023-10-20T01:40:10.908Z,11.70
2023-10-20T01:42:40.820Z,9.68
2023-10-20T01:45:11.105Z,9.82
2023-10-20T01:47:39.942Z,9.02
2023-10-20T01:50:09.158Z,12.10
2023-10-20T01:52:38.514Z,9.63
2023-10-20T01:55:07.341Z,10.43
2023-10-20T01:57:35.771Z,9.88
2023-10-20T02:00:09.617Z,8.88
2023-10-20T02:02:41.133Z,8.48
2023-10-20T02:05:10.686Z,11.05
2023-10-20T02:07:39.994Z,8.23
2023-10-20T02:10:09.595Z,10.02
2023-10-20T02:12:38.111Z,8.45
2023-10-20T02:15:09.944Z,9.75
2023-10-20T02:17:38.455Z,8.55
2023-10-20T02:20:08.558Z,9.15
2023-10-20T02:22:37.013Z,9.20
2023-10-20T02:25:06.612Z,7.13
2023-10-20T02:27:35.088Z,8.63
2023-10-20T02:30:04.337Z,8.93
2023-10-20T02:32:34.294Z,8.07
2023-10-20T02:35:03.328Z,9.38
2023-10-20T02:37:31.701Z,8.07
2023-10-20T02:40:01.050Z,9.15
2023-10-20T02:42:32.243Z,7.60
2023-10-20T02:45:00.652Z,8.02
2023-10-20T02:47:31.056Z,8.85
2023-10-20T02:50:00.953Z,9.13
2023-10-20T02:52:29.350Z,8.55
2023-10-20T02:54:57.665Z,6.97
2023-10-20T02:57:26.153Z,9.18
2023-10-20T02:59:54.520Z,7.70
2023-10-20T03:02:23.782Z,7.80
2023-10-20T03:04:55.001Z,9.48
2023-10-20T03:07:28.600Z,8.48
2023-10-20T03:12:26.616Z,6.32
2023-10-20T03:14:55.139Z,6.03
2023-10-20T03:17:23.496Z,8.55
2023-10-20T03:19:54.887Z,6.50
2023-10-20T03:22:24.809Z,8.57
2023-10-20T03:24:53.076Z,8.18
2023-10-20T03:27:21.662Z,8.35
2023-10-20T03:29:52.706Z,9.38
2023-10-20T03:32:21.513Z,8.63
2023-10-20T03:34:49.767Z,8.48
2023-10-20T03:37:18.153Z,7.85
2023-10-20T03:39:52.330Z,8.90
2023-10-20T03:42:20.720Z,8.38
2023-10-20T03:44:49.291Z,7.95
2023-10-20T03:47:18.724Z,8.93
2023-10-20T03:49:47.897Z,8.27
2023-10-20T03:52:16.239Z,9.13
2023-10-20T03:54:45.871Z,8.45
2023-10-20T03:57:17.217Z,10.10
2023-10-20T03:59:48.205Z,7.93
2023-10-20T04:02:16.740Z,8.77
2023-10-20T04:04:45.349Z,8.60
2023-10-20T04:07:13.581Z,8.52
2023-10-20T04:09:42.209Z,8.40
2023-10-20T04:12:10.710Z,9.43
2023-10-20T04:14:40.690Z,8.35
2023-10-20T04:17:09.104Z,9.70
2023-10-20T04:19:37.392Z,9.80
2023-10-20T04:22:13.848Z,8.38
2023-10-20T04:24:43.067Z,8.85
2023-10-20T04:27:22.620Z,9.18
2023-10-20T04:32:51.648Z,7.22
2023-10-20T04:35:36.777Z,9.25
2023-10-20T04:38:22.909Z,9.05
2023-10-20T04:41:08.618Z,8.73
2023-10-20T04:43:41.185Z,9.00
2023-10-20T04:46:30.787Z,9.02
2023-10-20T04:49:17.971Z,9.27
2023-10-20T04:52:03.679Z,8.50
2023-10-20T04:54:45.953Z,8.85
2023-10-20T04:57:32.672Z,9.30
2023-10-20T05:00:22.570Z,9.65
2023-10-20T05:03:13.705Z,10.27
2023-10-20T05:05:45.686Z,8.60
2023-10-20T05:08:19.377Z,8.65
2023-10-20T05:10:50.547Z,9.40
2023-10-20T05:13:20.342Z,8.68
2023-10-20T05:15:49.384Z,9.43
2023-10-20T05:18:19.490Z,8.75
2023-10-20T05:20:47.895Z,8.90
2023-10-20T05:23:17.179Z,7.95
2023-10-20T05:25:50.448Z,8.68
2023-10-20T05:28:19.114Z,7.63
2023-10-20T05:30:48.169Z,7.70
2023-10-20T05:33:17.455Z,8.65
2023-10-20T05:35:47.396Z,8.90
2023-10-20T05:38:16.222Z,7.93
2023-10-20T05:40:44.983Z,7.72
2023-10-20T05:43:14.377Z,7.20
2023-10-20T05:45:43.237Z,7.78
2023-10-20T05:48:14.153Z,9.13
2023-10-20T05:50:42.957Z,9.02
2023-10-20T05:53:15.828Z,8.50
2023-10-20T06:33:35.716Z,6.50
2023-10-20T06:36:11.750Z,6.25
2023-10-20T06:38:59.732Z,7.18
2023-10-20T06:41:28.661Z,7.55
2023-10-20T06:43:59.040Z,8.07
2023-10-20T06:46:28.814Z,7.95
2023-10-20T06:48:57.506Z,7.90
2023-10-20T06:51:26.781Z,7.10
2023-10-20T06:53:55.284Z,5.82
2023-10-20T06:56:28.556Z,8.13
2023-10-20T06:58:57.261Z,6.97
2023-10-20T07:01:28.109Z,7.00
2023-10-20T07:03:56.954Z,5.78
2023-10-20T07:06:25.419Z,5.97
2023-10-20T07:08:53.808Z,5.72
2023-10-20T07:11:25.606Z,5.60
2023-10-20T07:13:55.329Z,5.47
2023-10-20T07:16:23.696Z,4.07
2023-10-20T07:18:52.068Z,5.65
2023-10-20T07:21:20.467Z,5.68
2023-10-20T07:23:48.787Z,4.40
2023-10-20T07:26:19.402Z,4.72
2023-10-20T07:28:48.360Z,4.15
2023-10-20T07:31:22.929Z,4.25
2023-10-20T07:33:51.582Z,5.13
2023-10-20T07:36:20.790Z,3.95
2023-10-20T07:38:52.125Z,3.22
2023-10-20T07:41:20.540Z,3.03
2023-10-20T07:43:50.912Z,3.05
2023-10-20T07:46:22.682Z,3.88
2023-10-20T07:48:51.493Z,2.47
2023-10-20T07:51:20.474Z,2.55
2023-10-20T07:53:54.295Z,2.75
2023-10-20T07:56:26.344Z,2.85
2023-10-20T07:58:54.946Z,2.50
2023-10-20T08:01:24.901Z,2.92
2023-10-20T08:03:53.971Z,2.33
2023-10-20T08:06:24.809Z,2.55
2023-10-20T08:08:55.637Z,2.15
2023-10-20T08:11:24.078Z,2.30
2023-10-20T08:13:52.930Z,2.22
2023-10-20T08:16:22.916Z,1.63
2023-10-20T08:18:53.260Z,1.55
2023-10-20T08:21:21.643Z,1.55
2023-10-20T08:23:50.037Z,1.88
2023-10-20T08:26:23.046Z,1.80
2023-10-20T08:28:51.810Z,1.55
2023-10-20T08:31:23.116Z,1.33
2023-10-20T08:33:53.832Z,1.95
2023-10-20T08:36:25.031Z,1.90
2023-10-20T08:38:54.568Z,1.35
2023-10-20T08:41:24.878Z,1.52
2023-10-20T08:43:53.635Z,1.40
2023-10-20T08:46:25.017Z,1.58
2023-10-20T08:48:58.995Z,1.20
2023-10-20T08:51:27.627Z,1.45
2023-10-20T08:53:55.984Z,1.40
2023-10-20T08:56:24.769Z,1.52
2023-10-20T08:58:55.654Z,1.38
2023-10-20T09:01:24.257Z,1.67
2023-10-20T09:03:53.678Z,1.20
2023-10-20T09:06:27.553Z,1.35
2023-10-20T09:08:56.260Z,1.30
2023-10-20T09:11:31.086Z,1.02
2023-10-20T09:14:02.237Z,1.45
2023-10-20T09:16:30.677Z,0.88
2023-10-20T09:18:59.069Z,1.08
2023-10-20T09:21:30.155Z,1.20
2023-10-20T09:24:02.974Z,1.67
2023-10-20T09:26:34.081Z,1.30
2023-10-20T09:29:02.906Z,0.98
2023-10-20T09:31:31.526Z,1.00
2023-10-20T09:34:00.994Z,1.20
2023-10-20T09:36:33.055Z,1.45
2023-10-20T09:39:06.380Z,0.90
2023-10-20T09:41:38.002Z,0.93
2023-10-20T09:44:08.393Z,1.42
2023-10-20T09:46:54.528Z,1.23
2023-10-20T09:49:25.983Z,1.13
2023-10-20T09:51:58.217Z,1.52
2023-10-20T09:54:31.363Z,1.35
2023-10-20T09:57:01.217Z,1.33
2023-10-20T09:59:32.710Z,1.27
2023-10-20T10:02:01.885Z,1.10
2023-10-20T10:04:34.593Z,1.33
2023-10-20T10:07:06.369Z,1.33
2023-10-20T10:09:38.897Z,1.50
2023-10-20T10:12:11.898Z,1.25
2023-10-20T10:14:40.774Z,1.30
2023-10-20T10:17:11.862Z,1.50
2023-10-20T10:19:51.721Z,1.67
2023-10-20T10:22:28.952Z,1.70
2023-10-20T10:24:58.781Z,1.08
2023-10-20T10:27:30.033Z,1.35
2023-10-20T10:30:02.981Z,1.27
2023-10-20T10:32:35.439Z,1.40
2023-10-20T10:35:05.697Z,0.93
2023-10-20T10:37:38.349Z,0.82
2023-10-20T10:40:10.263Z,1.48
2023-10-20T10:42:40.940Z,1.70
2023-10-20T10:45:17.081Z,1.17
2023-10-20T10:47:45.576Z,1.58
2023-10-20T10:50:16.521Z,1.35
2023-10-20T10:52:46.518Z,1.42
2023-10-20T10:55:15.118Z,1.20
2023-10-20T10:57:43.916Z,1.17
2023-10-20T11:00:19.891Z,1.20
2023-10-20T11:02:49.407Z,1.10
2023-10-20T11:05:18.776Z,0.80
2023-10-20T11:08:03.858Z,0.55
2023-10-20T11:10:35.500Z,1.10
2023-10-20T11:13:08.154Z,1.08
2023-10-20T11:15:37.745Z,0.93
2023-10-20T11:18:08.957Z,1.10
2023-10-20T11:20:39.611Z,1.17
2023-10-20T11:23:10.409Z,1.17
2023-10-20T11:25:41.972Z,1.40
2023-10-20T11:28:10.714Z,1.00
2023-10-20T11:30:46.210Z,0.82
2023-10-20T11:33:16.726Z,0.68
2023-10-20T11:35:46.619Z,0.80
2023-10-20T11:38:17.626Z,0.80
2023-10-20T11:40:50.968Z,1.50
2023-10-20T11:43:19.468Z,0.80
2023-10-20T11:45:47.938Z,0.88
2023-10-20T11:48:17.100Z,1.30
2023-10-20T11:50:45.879Z,1.10
2023-10-20T11:53:17.945Z,0.98
2023-10-20T11:55:46.482Z,0.60
2023-10-20T11:58:14.841Z,0.70
2023-10-20T12:00:43.679Z,0.90
2023-10-20T12:03:12.332Z,1.13
2023-10-20T12:05:41.500Z,0.98
2023-10-20T12:08:10.224Z,1.20
2023-10-20T12:10:40.872Z,1.13
2023-10-20T12:13:10.055Z,1.20
2023-10-20T12:15:38.891Z,0.93
2023-10-20T12:18:08.704Z,1.17
2023-10-20T12:20:37.423Z,1.10
2023-10-20T12:23:08.370Z,1.08
2023-10-20T12:25:37.270Z,1.33
2023-10-20T12:28:08.041Z,1.00
2023-10-20T12:30:37.084Z,1.23
2023-10-20T12:33:06.799Z,0.98
2023-10-20T12:35:35.302Z,1.00
2023-10-20T12:38:07.311Z,1.05
2023-10-20T12:40:36.915Z,0.98
2023-10-20T12:43:13.044Z,1.10
2023-10-20T12:45:43.599Z,0.73
2023-10-20T12:48:12.091Z,0.90
2023-10-20T12:50:40.584Z,0.73
2023-10-20T12:53:09.626Z,0.80
2023-10-20T12:55:37.944Z,0.50
2023-10-20T12:58:07.829Z,0.63
2023-10-20T13:00:36.271Z,0.75
2023-10-20T13:03:05.040Z,0.70
2023-10-20T13:05:35.980Z,0.73
2023-10-20T13:08:05.078Z,0.60
2023-10-20T13:10:37.341Z,0.68
2023-10-20T13:13:10.006Z,0.93
2023-10-20T13:15:40.356Z,0.80
2023-10-20T13:18:10.230Z,0.70
2023-10-20T13:20:39.045Z,0.80
2023-10-20T13:23:07.426Z,1.27
2023-10-20T13:25:36.159Z,0.98
2023-10-20T13:28:07.069Z,0.52
2023-10-20T13:30:37.250Z,1.00
2023-10-20T13:33:06.316Z,0.88
2023-10-20T13:35:37.912Z,0.90
2023-10-20T13:38:18.057Z,0.82
2023-10-20T13:40:47.873Z,1.08
2023-10-20T13:43:16.277Z,1.08
2023-10-20T13:45:46.072Z,1.42
2023-10-20T13:48:14.910Z,0.60
2023-10-20T13:50:43.328Z,1.08
2023-10-20T13:53:15.538Z,0.73
2023-10-20T13:55:50.356Z,0.93
2023-10-20T13:58:19.444Z,1.10
2023-10-20T14:00:56.844Z,1.10
2023-10-20T14:03:26.925Z,1.08
2023-10-20T14:05:56.502Z,1.13
2023-10-20T14:08:25.797Z,0.93
2023-10-20T14:10:55.612Z,0.85
2023-10-20T14:13:24.000Z,1.08
2023-10-20T14:15:53.881Z,1.13
2023-10-20T14:18:23.132Z,0.70
2023-10-20T14:21:31.971Z,1.50
2023-10-20T14:24:01.218Z,1.20
2023-10-20T14:26:29.751Z,1.40
2023-10-20T14:28:58.136Z,1.35
2023-10-20T14:31:33.615Z,1.20
2023-10-20T14:34:02.091Z,0.90
2023-10-20T14:36:32.562Z,1.00
2023-10-20T14:39:00.896Z,1.30
2023-10-20T14:41:29.290Z,1.05
2023-10-20T14:44:00.418Z,1.50
2023-10-20T14:46:28.837Z,1.05
2023-10-20T14:48:57.675Z,1.58
2023-10-20T14:51:26.307Z,1.15
2023-10-20T14:55:54.744Z,1.27
2023-10-20T14:58:23.320Z,0.90
2023-10-20T15:00:52.607Z,1.50
2023-10-20T15:03:22.216Z,1.10
2023-10-20T15:05:52.033Z,1.30
2023-10-20T15:08:21.049Z,1.35
2023-10-20T15:10:49.661Z,1.13
2023-10-20T15:13:20.321Z,0.85
2023-10-20T15:15:48.696Z,1.27
2023-10-20T15:18:19.746Z,1.35
2023-10-20T15:20:48.252Z,1.45
2023-10-20T15:23:18.368Z,1.40
2023-10-20T15:25:48.395Z,1.48
2023-10-20T15:28:16.867Z,1.48
2023-10-20T15:30:47.062Z,1.10
2023-10-20T15:33:18.223Z,1.02
2023-10-20T15:35:48.688Z,1.52
2023-10-20T15:38:17.444Z,2.00
2023-10-20T15:40:52.494Z,1.80
2023-10-20T15:43:21.244Z,1.52
2023-10-20T15:45:51.132Z,1.67
2023-10-20T15:48:19.796Z,1.67
2023-10-20T15:50:48.490Z,1.65
2023-10-20T15:53:16.973Z,1.80
2023-10-20T15:55:47.541Z,1.88
2023-10-20T15:58:16.789Z,1.38
2023-10-20T16:00:48.662Z,1.65
2023-10-20T16:03:20.813Z,2.63
2023-10-20T16:05:49.425Z,1.63
2023-10-20T16:08:17.686Z,2.13
2023-10-20T16:10:47.300Z,2.00
2023-10-20T16:13:15.764Z,2.20
2023-10-20T16:15:44.205Z,2.60
2023-10-20T16:18:13.012Z,2.10
2023-10-20T16:20:43.023Z,1.88
2023-10-20T16:23:11.308Z,1.77
2023-10-20T16:25:39.576Z,1.95
2023-10-20T16:28:09.093Z,2.13
2023-10-20T16:30:37.469Z,2.03
2023-10-20T16:33:06.470Z,1.95
2023-10-20T16:35:34.990Z,2.83
2023-10-20T16:38:04.803Z,2.55
2023-10-20T16:40:33.122Z,2.97
2023-10-20T16:43:02.209Z,2.17
2023-10-20T16:45:30.700Z,2.47
2023-10-20T16:47:59.098Z,2.33
2023-10-20T16:50:28.300Z,2.45
2023-10-20T16:52:58.733Z,2.40
2023-10-20T16:55:28.937Z,2.28
2023-10-20T16:57:57.448Z,2.22
2023-10-20T17:00:25.901Z,3.25
2023-10-20T17:02:54.376Z,2.83
2023-10-20T17:05:22.924Z,3.35
2023-10-20T17:07:51.542Z,3.42
2023-10-20T17:10:20.568Z,3.45
2023-10-20T17:12:51.406Z,3.00
2023-10-20T17:15:20.176Z,2.38
2023-10-20T17:17:48.561Z,2.92
2023-10-20T17:20:17.250Z,2.58
2023-10-20T17:22:45.807Z,3.00
2023-10-20T17:25:14.083Z,2.92
2023-10-20T17:27:42.402Z,2.25
2023-10-20T17:30:13.293Z,2.80
2023-10-20T17:32:41.640Z,3.40
2023-10-20T17:35:10.955Z,2.50
2023-10-20T17:37:41.527Z,2.80
2023-10-20T17:40:13.325Z,3.30
2023-10-20T17:42:41.701Z,2.95
2023-10-20T17:45:10.750Z,3.75
2023-10-20T17:47:40.812Z,3.00
2023-10-20T17:50:10.018Z,2.85
2023-10-20T17:52:38.264Z,2.75
2023-10-20T17:55:07.491Z,3.15
2023-10-20T17:57:36.396Z,3.17
2023-10-20T18:00:06.338Z,3.47
2023-10-20T18:02:44.720Z,3.95
2023-10-20T18:06:30.980Z,3.83
2023-10-20T18:08:59.351Z,4.22
2023-10-20T18:11:28.039Z,4.75
2023-10-20T18:13:57.265Z,4.75
2023-10-20T18:16:26.504Z,3.17
2023-10-20T18:18:55.003Z,4.10
2023-10-20T18:21:23.465Z,4.20
2023-10-20T18:23:58.759Z,3.72
2023-10-20T18:26:27.237Z,3.60
2023-10-20T18:28:55.658Z,3.08
2023-10-20T18:31:24.045Z,3.78
2023-10-20T18:33:58.388Z,4.53
2023-10-20T18:36:27.854Z,3.40
2023-10-20T18:38:57.908Z,2.35
2023-10-20T18:41:26.276Z,3.30
2023-10-20T18:43:54.838Z,4.10
2023-10-20T18:46:24.983Z,3.83
2023-10-20T18:48:53.954Z,3.20
2023-10-20T18:51:23.881Z,3.45
2023-10-20T18:53:53.401Z,3.75
2023-10-20T18:56:23.589Z,3.83
2023-10-20T18:58:51.901Z,3.28
2023-10-20T19:01:20.544Z,3.38
2023-10-20T19:03:49.216Z,3.60
2023-10-20T19:06:17.828Z,4.68
2023-10-20T19:08:46.221Z,4.25
2023-10-20T19:11:14.688Z,5.30
2023-10-20T19:13:45.189Z,5.93
2023-10-20T19:16:13.576Z,4.55
2023-10-20T19:18:42.029Z,5.05
2023-10-20T19:21:12.320Z,4.35
2023-10-20T19:23:41.972Z,3.78
2023-10-20T19:26:12.592Z,3.45
2023-10-20T19:28:41.022Z,4.03
2023-10-20T19:31:11.045Z,4.38
2023-10-20T19:33:40.368Z,4.28
2023-10-20T19:36:11.008Z,5.00
2023-10-20T19:38:40.138Z,3.88
2023-10-20T19:41:09.387Z,5.50
2023-10-20T19:43:37.946Z,6.18
2023-10-20T19:46:06.494Z,7.03
2023-10-20T19:48:36.556Z,6.28
2023-10-20T19:51:05.039Z,5.65
2023-10-20T19:53:33.408Z,6.95
2023-10-20T19:56:01.848Z,7.40
2023-10-20T19:58:30.269Z,4.88
2023-10-20T20:00:59.311Z,6.10
2023-10-20T20:03:28.444Z,7.88
2023-10-20T20:05:59.497Z,6.45
2023-10-20T20:08:27.774Z,6.70
2023-10-20T20:10:57.298Z,8.32
2023-10-20T20:13:26.528Z,8.52
2023-10-20T20:15:54.756Z,11.10
2023-10-20T20:18:23.184Z,6.55
2023-10-20T20:20:51.543Z,6.70
2023-10-20T20:23:21.380Z,6.53
2023-10-20T20:25:50.023Z,6.65
2023-10-20T20:28:18.281Z,7.82
2023-10-20T20:30:46.627Z,7.75
2023-10-20T20:33:15.067Z,7.82
2023-10-20T20:35:44.055Z,5.95
2023-10-20T20:38:12.509Z,5.25
2023-10-20T20:40:42.287Z,6.55
2023-10-20T20:43:10.696Z,6.50
2023-10-20T20:45:39.030Z,7.65
2023-10-20T20:48:08.916Z,6.50
2023-10-20T20:50:41.804Z,7.00
2023-10-20T20:53:10.238Z,6.45
2023-10-20T20:55:38.777Z,7.28
2023-10-20T20:58:08.666Z,8.15
2023-10-20T21:00:37.454Z,7.65
2023-10-20T21:03:06.691Z,7.75
2023-10-20T21:05:35.705Z,7.75
2023-10-20T21:08:04.837Z,8.18
2023-10-20T21:10:33.907Z,7.28
2023-10-20T21:13:02.570Z,7.32
2023-10-20T21:15:32.488Z,8.50
2023-10-20T21:18:00.837Z,7.60
2023-10-20T21:20:29.272Z,7.57
2023-10-20T21:22:57.569Z,7.45
2023-10-20T21:25:26.636Z,7.28
2023-10-20T21:27:55.137Z,7.43
2023-10-20T21:30:23.449Z,8.50
2023-10-20T21:32:53.318Z,8.07
2023-10-20T21:35:23.836Z,8.38
2023-10-20T21:37:52.206Z,8.15
2023-10-20T21:40:21.738Z,8.90
2023-10-20T21:42:50.160Z,8.13
2023-10-20T21:45:19.334Z,7.20
2023-10-20T21:47:47.987Z,8.38
2023-10-20T21:50:18.118Z,7.93
2023-10-20T21:52:46.491Z,8.32
2023-10-20T21:55:14.800Z,8.73
2023-10-20T21:57:43.256Z,10.00
2023-10-20T22:00:17.293Z,9.15
2023-10-20T22:02:46.199Z,9.73
2023-10-20T22:05:14.539Z,8.98
2023-10-20T22:07:44.614Z,10.25
2023-10-20T22:10:13.007Z,8.60
2023-10-20T22:12:41.414Z,10.40
2023-10-20T22:15:10.879Z,9.52
2023-10-20T22:17:40.053Z,8.45
2023-10-20T22:20:10.035Z,8.25
2023-10-20T22:22:38.433Z,9.38
2023-10-20T22:25:10.087Z,9.88
2023-10-20T22:27:38.474Z,8.88
2023-10-20T22:30:09.087Z,9.30
2023-10-20T22:32:38.463Z,8.80
2023-10-20T22:35:07.634Z,9.05
2023-10-20T22:37:36.481Z,9.93
2023-10-20T22:40:05.239Z,9.85
2023-10-20T22:42:35.021Z,9.52
2023-10-20T22:45:03.655Z,9.57
2023-10-20T22:47:33.436Z,8.00
2023-10-20T22:50:01.893Z,9.82
2023-10-20T22:52:30.301Z,9.85
2023-10-20T22:54:58.792Z,8.45
2023-10-20T22:57:27.145Z,8.93
2023-10-20T22:59:57.078Z,9.75
2023-10-20T23:02:25.530Z,9.35
2023-10-20T23:04:53.793Z,9.02
2023-10-20T23:07:22.071Z,10.10
2023-10-20T23:09:50.650Z,9.85
2023-10-20T23:12:18.985Z,9.98
2023-10-20T23:14:47.428Z,9.43
2023-10-20T23:17:17.611Z,8.93
2023-10-20T23:19:46.018Z,9.93
2023-10-20T23:22:14.422Z,9.50
2023-10-20T23:24:42.935Z,10.40
2023-10-20T23:27:11.257Z,10.48
2023-10-20T23:29:39.704Z,10.75
2023-10-20T23:32:09.997Z,12.40
2023-10-20T23:34:39.878Z,11.48
2023-10-20T23:37:09.098Z,12.48
2023-10-20T23:39:37.942Z,12.40
2023-10-20T23:42:06.832Z,10.93
2023-10-20T23:44:35.411Z,11.90
2023-10-20T23:47:03.877Z,10.07
2023-10-20T23:49:34.326Z,11.07
2023-10-20T23:52:04.141Z,12.18
2023-10-20T23:54:32.598Z,10.57
2023-10-20T23:57:01.025Z,12.13
2023-10-20T23:59:29.748Z,10.43
